Time;durP1;ratioP1;P1;durP2;ratioP2;P2;SDS_P1;SDS_P2;PMS_P1;PMS_P2;Temp;Humidity;BMP_temperature;BMP_pressure;BME280_temperature;BME280_humidity;BME280_pressure;Samples;Min_cycle;Max_cycle;Signal;HPM_P1;HPM_P2
2022/09/09 00:02:04;;;;;;;1.98;1.10;;;19.50;46.20;;;;;;20476;6863;307023;31
2022/09/09 00:04:29;;;;;;;3.00;1.13;;;19.70;45.90;;;;;;20496;6863;317159;31
2022/09/09 00:06:58;;;;;;;2.33;1.13;;;20.10;44.80;;;;;;20505;6863;279806;31
2022/09/09 00:09:24;;;;;;;1.47;1.10;;;20.40;44.10;;;;;;20308;6863;308111;31
2022/09/09 00:11:56;;;;;;;2.77;1.30;;;20.50;43.70;;;;;;20666;6863;123189;31
2022/09/09 00:14:41;;;;;;;1.20;1.10;;;20.30;44.20;;;;;;20690;6863;116353;31
2022/09/09 00:17:08;;;;;;;1.90;1.27;;;20.00;45.00;;;;;;19914;6863;281858;31
2022/09/09 00:19:40;;;;;;;2.50;1.20;;;20.10;44.70;;;;;;20427;6863;337941;31
2022/09/09 00:22:13;;;;;;;1.92;1.33;;;20.30;43.90;;;;;;20296;6863;337157;31
2022/09/09 00:24:38;;;;;;;2.40;1.27;;;20.60;44.30;;;;;;20646;6863;117547;31
2022/09/09 00:27:05;;;;;;;1.83;0.90;;;20.30;44.60;;;;;;20639;6863;118404;31
2022/09/09 00:29:37;;;;;;;1.03;0.80;;;20.00;45.30;;;;;;20626;6863;116816;31
2022/09/09 00:32:11;;;;;;;1.20;0.90;;;19.70;45.80;;;;;;20488;6863;121512;31
2022/09/09 00:34:38;;;;;;;2.80;1.37;;;19.50;46.10;;;;;;20420;6863;314869;31
2022/09/09 00:37:02;;;;;;;1.53;1.17;;;19.80;45.30;;;;;;20635;6863;117107;31
2022/09/09 00:39:35;;;;;;;1.77;1.40;;;19.80;45.50;;;;;;20436;6863;279526;31
2022/09/09 00:42:17;;;;;;;2.20;1.30;;;19.90;44.80;;;;;;20398;6861;298009;31
2022/09/09 00:44:59;;;;;;;1.30;1.20;;;20.30;44.60;;;;;;20636;6862;118126;31
2022/09/09 00:47:44;;;;;;;2.30;1.40;;;20.10;45.00;;;;;;19461;6863;308944;31
2022/09/09 00:50:13;;;;;;;2.03;1.00;;;20.20;44.60;;;;;;20638;6863;118166;31
2022/09/09 00:53:02;;;;;;;1.50;1.20;;;20.00;45.00;;;;;;20440;6863;278653;31
2022/09/09 00:55:47;;;;;;;1.60;1.17;;;20.10;44.80;;;;;;20426;6863;279010;31
2022/09/09 00:58:12;;;;;;;1.87;1.20;;;20.40;44.40;;;;;;20432;6863;308773;31
2022/09/09 01:00:48;;;;;;;2.83;1.50;;;20.60;43.80;;;;;;20436;6863;338370;31
2022/09/09 01:03:24;;;;;;;2.63;1.40;;;20.70;43.50;;;;;;20628;6863;118089;31
2022/09/09 01:05:53;;;;;;;2.27;1.33;;;20.40;44.30;;;;;;20349;6863;308262;31
2022/09/09 01:08:35;;;;;;;2.00;1.13;;;20.40;44.60;;;;;;20652;6863;118596;31
2022/09/09 01:11:02;;;;;;;2.20;0.87;;;20.10;44.90;;;;;;20632;6863;117085;31
2022/09/09 01:13:33;;;;;;;1.70;1.00;;;19.70;45.50;;;;;;20449;6863;346927;31
2022/09/09 01:15:59;;;;;;;0.90;0.90;;;19.80;45.50;;;;;;20666;6863;118232;31
2022/09/09 01:18:24;;;;;;;1.45;0.90;;;19.70;45.80;;;;;;20666;6863;116822;31
2022/09/09 01:21:09;;;;;;;1.50;0.97;;;19.50;46.20;;;;;;20639;6863;120073;31
2022/09/09 01:24:01;;;;;;;2.30;1.30;;;19.30;46.50;;;;;;20406;6863;308375;31
2022/09/09 01:26:30;;;;;;;1.75;1.15;;;19.60;45.50;;;;;;20443;6863;311620;31
2022/09/09 01:28:56;;;;;;;1.47;0.90;;;20.00;44.70;;;;;;20631;6863;117107;31
2022/09/09 01:31:29;;;;;;;1.65;1.05;;;19.80;45.00;;;;;;20413;6863;280949;31
2022/09/09 01:33:55;;;;;;;2.42;1.10;;;19.90;44.50;;;;;;20371;6863;308155;31
2022/09/09 01:37:00;;;;;;;3.20;1.17;;;20.10;44.10;;;;;;20439;6863;278777;31
2022/09/09 01:39:26;;;;;;;1.27;1.10;;;20.30;44.00;;;;;;20651;6863;117096;31
2022/09/09 01:41:53;;;;;;;2.97;1.10;;;19.90;44.60;;;;;;20627;6863;118198;31
2022/09/09 01:44:18;;;;;;;2.28;1.23;;;19.50;45.20;;;;;;20430;6863;337761;31
2022/09/09 01:46:44;;;;;;;2.37;1.13;;;19.50;45.20;;;;;;20646;6863;120797;31
2022/09/09 01:49:09;;;;;;;1.83;1.20;;;19.40;45.50;;;;;;20435;6863;337863;31
2022/09/09 01:51:35;;;;;;;1.37;1.00;;;19.50;45.60;;;;;;20656;6863;117352;31
2022/09/09 01:54:00;;;;;;;1.70;1.23;;;19.40;45.90;;;;;;20396;6861;312246;31
2022/09/09 01:56:35;;;;;;;3.62;1.12;;;19.40;45.80;;;;;;20649;6862;116612;31
2022/09/09 01:59:21;;;;;;;3.97;1.20;;;19.20;46.00;;;;;;20421;6862;309596;31
2022/09/09 02:02:16;;;;;;;2.30;1.20;;;19.30;46.00;;;;;;20625;6862;116998;31
2022/09/09 02:04:49;;;;;;;1.57;1.20;;;19.10;46.20;;;;;;20431;6863;279014;31
2022/09/09 02:07:22;;;;;;;2.90;1.30;;;19.20;46.30;;;;;;20417;6863;313482;31
2022/09/09 02:09:46;;;;;;;2.30;1.23;;;19.50;45.80;;;;;;20413;6863;308222;31
2022/09/09 02:12:13;;;;;;;1.37;1.20;;;19.70;45.40;;;;;;20635;6863;118930;31
2022/09/09 02:14:39;;;;;;;2.87;1.20;;;19.40;45.60;;;;;;20430;6863;313658;31
2022/09/09 02:17:10;;;;;;;3.50;1.17;;;19.40;45.80;;;;;;20452;6863;308963;31
2022/09/09 02:19:39;;;;;;;1.93;1.10;;;19.60;45.50;;;;;;20647;6863;118366;31
2022/09/09 02:22:05;;;;;;;2.53;1.35;;;19.30;45.90;;;;;;20418;6863;338447;31
2022/09/09 02:24:30;;;;;;;5.28;1.60;;;19.40;46.50;;;;;;20446;6863;336597;31
2022/09/09 02:26:56;;;;;;;2.43;1.40;;;19.60;48.20;;;;;;20640;6863;118421;31
2022/09/09 02:29:26;;;;;;;2.90;1.48;;;19.40;48.00;;;;;;20432;6863;308352;31
2022/09/09 02:31:54;;;;;;;3.20;1.20;;;19.30;47.80;;;;;;20626;6863;121123;31
2022/09/09 02:34:18;;;;;;;2.70;1.40;;;19.10;48.10;;;;;;20647;6863;119098;31
2022/09/09 02:36:44;;;;;;;3.33;1.60;;;18.80;48.70;;;;;;20387;6863;314590;31
2022/09/09 02:39:09;;;;;;;2.22;1.60;;;18.80;48.90;;;;;;20411;6863;305934;31
2022/09/09 02:41:35;;;;;;;2.23;1.67;;;19.10;48.70;;;;;;20437;6863;290839;31
2022/09/09 02:44:02;;;;;;;2.10;1.53;;;19.20;48.40;;;;;;20412;6863;277733;31
2022/09/09 02:46:48;;;;;;;3.23;1.63;;;19.30;48.10;;;;;;20432;6863;309649;31
2022/09/09 02:49:52;;;;;;;1.57;1.47;;;19.40;48.00;;;;;;20621;6863;117546;31
2022/09/09 02:52:22;;;;;;;4.43;1.67;;;19.00;48.30;;;;;;20642;6863;121143;31
2022/09/09 02:54:47;;;;;;;2.47;1.45;;;18.60;49.20;;;;;;20403;6863;313467;31
2022/09/09 02:57:15;;;;;;;3.23;1.63;;;18.70;49.40;;;;;;20639;6863;123366;31
2022/09/09 02:59:41;;;;;;;2.62;1.60;;;18.60;49.40;;;;;;20407;6863;308636;31
2022/09/09 03:02:06;;;;;;;3.10;1.80;;;18.70;49.30;;;;;;20456;6863;279507;31
2022/09/09 03:04:33;;;;;;;3.60;1.60;;;18.90;49.10;;;;;;20470;6861;309310;31
2022/09/09 03:06:58;;;;;;;1.77;1.40;;;19.10;48.50;;;;;;20443;6862;309041;31
2022/09/09 03:09:25;;;;;;;2.37;1.50;;;19.20;48.20;;;;;;20449;6862;308206;31
2022/09/09 03:11:54;;;;;;;1.20;1.10;;;19.30;48.20;;;;;;20632;6863;117300;31
2022/09/09 03:14:21;;;;;;;1.40;1.30;;;19.00;48.60;;;;;;20425;6863;312949;31
2022/09/09 03:16:44;;;;;;;2.87;1.73;;;18.90;48.80;;;;;;20643;6863;118207;31
2022/09/09 03:19:09;;;;;;;3.42;1.50;;;18.70;49.10;;;;;;20452;6863;338149;31
2022/09/09 03:21:36;;;;;;;4.97;1.60;;;18.70;49.10;;;;;;20648;6863;121598;31
2022/09/09 03:24:03;;;;;;;1.77;1.43;;;18.60;49.40;;;;;;20633;6863;117704;31
2022/09/09 03:26:27;;;;;;;3.20;1.80;;;18.30;50.50;;;;;;20441;6863;313551;31
2022/09/09 03:28:55;;;;;;;2.50;1.50;;;18.40;50.20;;;;;;20656;6863;118134;31
2022/09/09 03:31:21;;;;;;;2.07;1.20;;;18.30;50.20;;;;;;20649;6863;117567;31
2022/09/09 03:33:47;;;;;;;3.83;1.60;;;18.10;50.50;;;;;;20428;6863;308343;31
2022/09/09 03:36:12;;;;;;;2.90;1.57;;;18.20;50.40;;;;;;20434;6863;308657;31
2022/09/09 03:38:37;;;;;;;1.77;1.67;;;18.60;49.90;;;;;;20656;6863;118931;31
2022/09/09 03:41:06;;;;;;;2.53;1.60;;;18.50;49.90;;;;;;20446;6863;308491;31
2022/09/09 03:43:29;;;;;;;2.33;1.30;;;18.60;49.40;;;;;;20655;6863;121021;31
2022/09/09 03:45:57;;;;;;;2.90;1.37;;;18.60;49.60;;;;;;20637;6863;119260;31
2022/09/09 03:48:20;;;;;;;2.97;1.57;;;18.30;49.90;;;;;;20635;6863;117281;31
2022/09/09 03:50:49;;;;;;;3.30;1.67;;;18.20;50.40;;;;;;20651;6863;118286;31
2022/09/09 03:53:15;;;;;;;3.83;1.77;;;18.00;50.60;;;;;;20435;6863;308917;31
2022/09/09 03:55:44;;;;;;;3.95;1.60;;;18.30;50.70;;;;;;20428;6863;290727;31
2022/09/09 03:58:10;;;;;;;2.27;1.30;;;18.60;49.80;;;;;;20657;6863;117531;31
2022/09/09 04:00:35;;;;;;;4.03;1.80;;;18.60;49.90;;;;;;20717;6863;117064;31
2022/09/09 04:03:00;;;;;;;3.97;1.50;;;18.40;50.30;;;;;;20690;6863;117461;31
2022/09/09 04:05:27;;;;;;;2.85;1.55;;;18.20;50.60;;;;;;20428;6863;308817;31
2022/09/09 04:07:54;;;;;;;2.50;1.40;;;18.40;50.80;;;;;;20610;6863;120193;31
2022/09/09 04:10:18;;;;;;;2.47;1.57;;;18.50;50.70;;;;;;20426;6863;309038;31
2022/09/09 04:12:44;;;;;;;1.80;1.63;;;18.60;49.20;;;;;;20641;6863;117590;31
2022/09/09 04:15:10;;;;;;;1.83;1.50;;;18.60;49.20;;;;;;20640;6863;118172;31
2022/09/09 04:17:36;;;;;;;3.07;1.30;;;18.40;49.60;;;;;;20432;6861;308902;31
2022/09/09 04:20:01;;;;;;;2.40;1.60;;;18.60;49.30;;;;;;20421;6862;309195;31
2022/09/09 04:22:26;;;;;;;1.60;1.47;;;19.00;48.80;;;;;;20653;6862;117057;31
2022/09/09 04:24:52;;;;;;;2.83;1.30;;;18.90;49.60;;;;;;20658;6863;117137;31
2022/09/09 04:27:19;;;;;;;4.13;1.23;;;18.60;49.20;;;;;;20654;6863;118591;31
2022/09/09 04:29:44;;;;;;;2.77;1.50;;;18.40;49.60;;;;;;20434;6863;282295;31
2022/09/09 04:32:10;;;;;;;1.55;1.30;;;18.60;49.20;;;;;;20683;6863;118993;31
2022/09/09 04:34:35;;;;;;;2.57;1.53;;;18.50;49.30;;;;;;20647;6863;116993;31
2022/09/09 04:37:01;;;;;;;2.30;1.60;;;18.30;49.70;;;;;;20441;6863;279233;31
2022/09/09 04:39:26;;;;;;;2.30;1.48;;;18.50;49.70;;;;;;20447;6863;294741;31
2022/09/09 04:41:52;;;;;;;2.83;1.60;;;18.90;49.30;;;;;;20407;6863;340286;31
2022/09/09 04:44:18;;;;;;;2.33;1.20;;;19.20;49.00;;;;;;20655;6863;118334;31
2022/09/09 04:46:43;;;;;;;2.55;1.40;;;19.10;49.10;;;;;;20677;6863;117901;31
2022/09/09 04:49:09;;;;;;;1.70;1.42;;;18.90;49.60;;;;;;20450;6863;309711;31
2022/09/09 04:52:05;;;;;;;2.67;1.43;;;19.00;49.40;;;;;;20728;6863;118240;31
2022/09/09 04:57:49;;;;;;;3.27;1.20;;;19.10;49.10;;;;;;21005;6605;225153;-85
2022/09/09 05:00:16;;;;;;;2.90;1.20;;;18.90;49.60;;;;;;20689;6802;277765;-85
2022/09/09 05:02:46;;;;;;;1.83;1.40;;;19.00;49.90;;;;;;20896;6802;117555;-86
2022/09/09 05:05:14;;;;;;;1.13;1.00;;;18.90;49.90;;;;;;20707;6811;118664;-86
2022/09/09 05:07:43;;;;;;;2.47;1.17;;;18.60;50.20;;;;;;20698;6868;117661;-88
2022/09/09 05:10:10;;;;;;;1.73;1.12;;;18.50;50.70;;;;;;20475;6868;283236;-85
2022/09/09 05:12:36;;;;;;;3.63;1.13;;;18.60;50.80;;;;;;20689;6868;117757;-85
2022/09/09 05:15:01;;;;;;;1.40;1.30;;;18.60;50.80;;;;;;20443;6868;309595;-85
2022/09/09 05:17:28;;;;;;;4.30;1.60;;;18.80;50.70;;;;;;20739;6859;117178;-85
2022/09/09 05:19:57;;;;;;;1.40;1.00;;;18.80;50.70;;;;;;20324;6868;119264;-85
2022/09/09 05:22:23;;;;;;;3.40;1.50;;;18.50;51.00;;;;;;20648;6876;120675;-85
2022/09/09 05:24:50;;;;;;;3.70;1.20;;;18.40;51.40;;;;;;20635;6876;117478;-84
2022/09/09 05:27:13;;;;;;;1.67;1.57;;;18.30;51.70;;;;;;20633;6876;118925;-86
2022/09/09 05:29:43;;;;;;;2.00;1.30;;;18.20;52.00;;;;;;20652;6877;116918;-86
2022/09/09 05:32:07;;;;;;;4.03;1.43;;;18.20;52.40;;;;;;20642;6877;117006;-89
2022/09/09 05:34:32;;;;;;;1.37;1.23;;;18.10;52.90;;;;;;20614;6877;117298;-86
2022/09/09 05:36:58;;;;;;;2.42;1.55;;;18.10;52.50;;;;;;20599;6891;118714;-88
2022/09/09 05:39:23;;;;;;;2.83;1.37;;;18.10;52.60;;;;;;20606;6891;117339;-84
2022/09/09 05:41:49;;;;;;;1.50;1.40;;;18.10;52.80;;;;;;20587;6890;118410;-85
2022/09/09 05:44:14;;;;;;;1.70;1.40;;;18.10;52.90;;;;;;20644;6880;118684;-84
2022/09/09 05:46:41;;;;;;;2.85;1.50;;;18.10;52.90;;;;;;20436;6880;329702;-84
2022/09/09 05:49:08;;;;;;;1.53;1.30;;;18.50;52.90;;;;;;20614;6880;122518;-85
2022/09/09 05:51:34;;;;;;;3.73;2.00;;;18.70;52.50;;;;;;20525;6880;122342;-86
2022/09/09 05:54:00;;;;;;;2.20;1.52;;;18.60;52.50;;;;;;20400;6866;435601;-85
2022/09/09 05:56:25;;;;;;;2.33;1.50;;;18.90;52.30;;;;;;20692;6866;117971;-89
2022/09/09 05:58:52;;;;;;;1.33;1.13;;;19.00;52.10;;;;;;20606;6881;120919;-86
2022/09/09 06:01:16;;;;;;;3.97;1.43;;;18.90;52.20;;;;;;20623;6869;118362;-88
2022/09/09 06:03:42;;;;;;;2.22;1.10;;;18.80;52.30;;;;;;20424;6873;279699;-87
2022/09/09 06:06:10;;;;;;;3.57;1.50;;;19.50;51.30;;;;;;20420;6873;338420;-86
2022/09/09 06:08:38;;;;;;;2.15;1.33;;;19.50;51.30;;;;;;20403;6872;323666;-87
2022/09/09 06:11:19;;;;;;;2.53;1.47;;;19.80;50.80;;;;;;20645;6873;117519;-86
2022/09/09 06:13:45;;;;;;;1.80;1.07;;;19.80;50.80;;;;;;20620;6873;119053;-86
2022/09/09 06:16:11;;;;;;;2.33;1.30;;;19.60;51.20;;;;;;20590;6889;117556;-88
2022/09/09 06:18:36;;;;;;;3.35;1.50;;;19.40;51.30;;;;;;20379;6890;280273;-87
2022/09/09 06:21:04;;;;;;;3.10;1.27;;;19.60;51.40;;;;;;20397;6888;312241;-88
2022/09/09 06:23:27;;;;;;;1.80;1.50;;;20.00;50.60;;;;;;20612;6875;117640;-87
2022/09/09 06:26:05;;;;;;;2.10;1.67;;;20.00;50.50;;;;;;20616;6875;118581;-88
2022/09/09 06:28:36;;;;;;;3.47;2.93;;;19.80;50.50;;;;;;20630;6875;117844;-86
2022/09/09 06:31:01;;;;;;;1.85;1.70;;;19.60;50.80;;;;;;20415;6875;337705;-85
2022/09/09 06:33:28;;;;;;;1.50;1.20;;;19.80;50.80;;;;;;20626;6875;116656;-86
2022/09/09 06:35:53;;;;;;;2.10;1.50;;;19.90;50.90;;;;;;20609;6875;119277;-85
2022/09/09 06:38:22;;;;;;;3.08;1.75;;;20.10;51.20;;;;;;20440;6875;341771;-86
2022/09/09 06:40:50;;;;;;;1.60;1.30;;;20.20;50.60;;;;;;20422;6875;324855;-86
2022/09/09 06:43:16;;;;;;;2.23;1.13;;;20.60;49.60;;;;;;20624;6875;123289;-84
2022/09/09 06:45:41;;;;;;;3.50;1.33;;;20.70;49.50;;;;;;20415;6875;318023;-84
2022/09/09 06:48:08;;;;;;;2.70;1.50;;;21.00;48.80;;;;;;20464;6875;308159;-84
2022/09/09 06:50:34;;;;;;;3.07;1.20;;;21.40;48.20;;;;;;20686;6875;118104;-84
2022/09/09 06:52:59;;;;;;;2.53;1.30;;;21.40;48.20;;;;;;20639;6866;117875;-87
2022/09/09 06:55:24;;;;;;;2.47;1.20;;;21.20;48.40;;;;;;20721;6851;119106;-81
2022/09/09 06:57:51;;;;;;;1.90;1.40;;;21.10;48.80;;;;;;20465;6852;308865;-84
2022/09/09 07:00:16;;;;;;;2.60;1.25;;;21.30;48.60;;;;;;20651;6870;118805;-83
2022/09/09 07:02:42;;;;;;;1.93;1.37;;;21.40;48.60;;;;;;20603;6881;117409;-85
2022/09/09 07:05:11;;;;;;;1.70;1.47;;;21.30;48.70;;;;;;20419;6867;309329;-85
2022/09/09 07:07:36;;;;;;;3.90;1.30;;;21.60;47.60;;;;;;20397;6880;309636;-85
2022/09/09 07:10:03;;;;;;;3.73;1.30;;;22.00;47.10;;;;;;20558;6895;120835;-85
2022/09/09 07:12:28;;;;;;;4.00;1.07;;;22.00;47.30;;;;;;20618;6870;119152;-85
2022/09/09 07:14:53;;;;;;;3.57;1.47;;;21.90;47.60;;;;;;20400;6881;280326;-85
2022/09/09 07:17:19;;;;;;;3.15;1.50;;;22.60;46.20;;;;;;20453;6866;339504;-85
2022/09/09 07:19:45;;;;;;;4.13;1.30;;;22.60;46.20;;;;;;20602;6879;118358;-85
2022/09/09 07:22:12;;;;;;;1.20;1.10;;;22.60;46.10;;;;;;20661;6865;117795;-87
2022/09/09 07:24:37;;;;;;;2.10;1.30;;;22.50;46.50;;;;;;20392;6884;280615;-85
2022/09/09 07:27:05;;;;;;;2.10;1.30;;;22.60;45.90;;;;;;20401;6884;310446;-86
2022/09/09 07:29:31;;;;;;;2.92;1.40;;;23.30;45.60;;;;;;20445;6866;308185;-86
2022/09/09 07:31:56;;;;;;;2.60;1.43;;;23.30;45.60;;;;;;20628;6869;117815;-86
2022/09/09 07:34:22;;;;;;;2.03;1.40;;;23.20;45.70;;;;;;20419;6881;279585;-86
2022/09/09 07:36:48;;;;;;;2.10;1.00;;;23.40;45.30;;;;;;20669;6866;122109;-86
2022/09/09 07:39:13;;;;;;;2.57;1.43;;;23.40;45.70;;;;;;20448;6869;307569;-88
2022/09/09 07:41:39;;;;;;;1.27;1.07;;;23.50;45.50;;;;;;20623;6881;117610;-84
2022/09/09 07:44:04;;;;;;;1.70;1.10;;;23.60;45.90;;;;;;20443;6864;279534;-86
2022/09/09 07:46:30;;;;;;;1.73;1.37;;;23.70;45.10;;;;;;20327;6885;287473;-85
2022/09/09 07:48:55;;;;;;;3.03;1.37;;;24.00;44.50;;;;;;20500;6851;279741;-86
2022/09/09 07:51:24;;;;;;;1.70;1.33;;;24.20;43.80;;;;;;20496;6851;279006;-87
2022/09/09 07:53:53;;;;;;;3.62;1.45;;;24.20;43.90;;;;;;20471;6851;309412;-85
2022/09/09 07:56:21;;;;;;;3.00;1.50;;;24.30;44.30;;;;;;20484;6851;308638;-86
2022/09/09 07:58:44;;;;;;;2.72;1.60;;;24.30;43.80;;;;;;20488;6851;279036;-86
2022/09/09 08:01:10;;;;;;;2.00;1.17;;;24.40;43.50;;;;;;20702;6851;117882;-85
2022/09/09 08:03:36;;;;;;;3.35;1.60;;;24.00;43.90;;;;;;20485;6851;283649;-86
2022/09/09 08:06:01;;;;;;;3.20;1.53;;;23.90;44.00;;;;;;20471;6851;308703;-84
2022/09/09 08:08:27;;;;;;;3.67;1.40;;;24.00;43.90;;;;;;20472;6851;278568;-85
2022/09/09 08:10:52;;;;;;;2.50;1.40;;;24.00;43.90;;;;;;20504;6847;282593;-85
2022/09/09 08:13:18;;;;;;;3.00;1.40;;;24.10;43.90;;;;;;20507;6847;279358;-85
2022/09/09 08:15:44;;;;;;;2.72;1.50;;;24.20;44.50;;;;;;20482;6847;305315;-85
2022/09/09 08:18:09;;;;;;;2.97;1.40;;;24.40;44.10;;;;;;20714;6847;117943;-85
2022/09/09 08:20:34;;;;;;;4.87;1.37;;;24.30;44.30;;;;;;20732;6847;117327;-86
2022/09/09 08:23:00;;;;;;;3.37;1.10;;;24.00;44.80;;;;;;20765;6847;116374;-84
2022/09/09 08:25:26;;;;;;;2.70;1.60;;;23.70;45.30;;;;;;20537;6847;309712;-85
2022/09/09 08:27:53;;;;;;;2.67;1.30;;;23.90;45.20;;;;;;20733;6847;124185;-85
2022/09/09 08:30:18;;;;;;;2.33;1.40;;;23.90;45.60;;;;;;20536;6846;308059;-84
2022/09/09 08:32:44;;;;;;;2.40;1.30;;;24.10;45.90;;;;;;20523;6847;278622;-85
2022/09/09 08:35:11;;;;;;;2.70;1.40;;;24.80;44.00;;;;;;20532;6847;295479;-85
2022/09/09 08:37:37;;;;;;;1.83;1.63;;;24.80;44.00;;;;;;20745;6847;117598;-85
2022/09/09 08:40:02;;;;;;;1.85;1.30;;;24.80;44.20;;;;;;20510;6847;329486;-84
2022/09/09 08:42:31;;;;;;;2.20;1.43;;;25.00;43.70;;;;;;20738;6847;117288;-85
2022/09/09 08:45:05;;;;;;;2.43;1.43;;;25.10;43.80;;;;;;20499;6847;282129;-84
2022/09/09 08:47:34;;;;;;;3.07;1.27;;;25.30;43.10;;;;;;20725;6847;117157;-86
2022/09/09 08:50:19;;;;;;;2.80;1.37;;;25.30;43.60;;;;;;20489;6847;307120;-84
2022/09/09 08:53:10;;;;;;;6.43;1.43;;;25.60;43.30;;;;;;20674;6862;117826;-84
2022/09/09 08:55:52;;;;;;;2.97;1.40;;;25.80;43.60;;;;;;20655;6866;124051;-86
2022/09/09 08:58:18;;;;;;;2.90;1.55;;;26.10;42.10;;;;;;20417;6877;339319;-84
2022/09/09 09:01:10;;;;;;;2.07;1.30;;;26.00;42.10;;;;;;20675;6862;117457;-85
2022/09/09 09:03:52;;;;;;;2.00;1.20;;;26.10;42.40;;;;;;20638;6873;118201;-86
2022/09/09 09:06:33;;;;;;;2.63;1.50;;;25.80;42.50;;;;;;20635;6874;117655;-84
2022/09/09 09:09:22;;;;;;;3.87;1.40;;;25.50;43.10;;;;;;20640;6874;118129;-84
2022/09/09 09:11:51;;;;;;;1.77;1.30;;;25.20;43.40;;;;;;20627;6874;118132;-86
2022/09/09 09:14:23;;;;;;;1.97;1.13;;;25.00;43.90;;;;;;20629;6874;117653;-85
2022/09/09 09:16:53;;;;;;;2.70;1.30;;;25.20;42.80;;;;;;20423;6874;301904;-85
2022/09/09 09:19:22;;;;;;;2.22;1.40;;;25.20;42.80;;;;;;20389;6873;280626;-87
2022/09/09 09:21:44;;;;;;;2.10;1.10;;;25.60;41.70;;;;;;20401;6874;310507;-85
2022/09/09 09:24:20;;;;;;;2.47;1.10;;;26.00;41.30;;;;;;20422;6874;310446;-85
2022/09/09 09:26:45;;;;;;;1.87;1.17;;;26.40;40.20;;;;;;20631;6874;121876;-84
2022/09/09 09:29:12;;;;;;;1.60;1.00;;;26.30;40.90;;;;;;20431;6874;300068;-85
2022/09/09 09:31:37;;;;;;;1.80;1.08;;;26.70;39.40;;;;;;20417;6874;279601;-86
2022/09/09 09:34:03;;;;;;;1.77;1.10;;;26.70;39.30;;;;;;20470;6874;436043;-84
2022/09/09 09:36:42;;;;;;;1.67;1.10;;;26.90;39.40;;;;;;20495;6874;279072;-84
2022/09/09 09:39:09;;;;;;;1.80;0.90;;;26.90;39.80;;;;;;20645;6874;117506;-86
2022/09/09 09:41:38;;;;;;;1.83;0.90;;;26.90;39.80;;;;;;20643;6872;118411;-87
2022/09/09 09:44:04;;;;;;;3.20;1.03;;;26.80;40.50;;;;;;20613;6873;117983;-84
2022/09/09 09:46:29;;;;;;;2.37;1.10;;;26.60;40.70;;;;;;20411;6873;279087;-84
2022/09/09 09:49:00;;;;;;;2.67;1.30;;;27.10;38.60;;;;;;20433;6874;280405;-84
2022/09/09 09:51:25;;;;;;;2.03;0.93;;;27.10;38.60;;;;;;20644;6874;118020;-84
2022/09/09 09:53:53;;;;;;;2.47;0.93;;;27.10;38.50;;;;;;20608;6873;117775;-83
2022/09/09 09:56:16;;;;;;;2.17;1.00;;;26.90;39.00;;;;;;20636;6874;118033;-84
2022/09/09 09:58:46;;;;;;;2.30;1.23;;;26.80;39.50;;;;;;20591;6874;117473;-84
2022/09/09 10:01:31;;;;;;;2.20;1.27;;;26.60;39.80;;;;;;20431;6874;279956;-87
2022/09/09 10:04:15;;;;;;;3.08;1.27;;;26.60;38.40;;;;;;20386;6873;314175;-85
2022/09/09 10:06:40;;;;;;;3.27;1.30;;;26.80;39.20;;;;;;20637;6874;117547;-85
2022/09/09 10:09:33;;;;;;;1.83;0.87;;;26.60;38.70;;;;;;20650;6874;117927;-87
2022/09/09 10:12:29;;;;;;;1.62;1.10;;;26.30;39.00;;;;;;20421;6874;308542;-86
2022/09/09 10:15:18;;;;;;;3.93;1.37;;;25.80;39.30;;;;;;20648;6874;117465;-86
2022/09/09 10:18:01;;;;;;;2.23;1.00;;;25.80;39.30;;;;;;20628;6874;117750;-86
2022/09/09 10:20:44;;;;;;;2.40;1.37;;;25.50;40.10;;;;;;20668;6874;68008;-85
2022/09/09 10:23:28;;;;;;;3.00;1.30;;;25.60;40.30;;;;;;19761;6874;310315;-85
2022/09/09 10:26:00;;;;;;;2.05;1.20;;;25.60;40.30;;;;;;20406;6874;338855;-88
2022/09/09 10:28:28;;;;;;;2.60;1.20;;;26.00;39.80;;;;;;20409;6874;281491;-85
2022/09/09 10:31:17;;;;;;;3.55;1.27;;;26.50;39.40;;;;;;20415;6874;309270;-86
2022/09/09 10:33:43;;;;;;;2.47;1.17;;;26.90;39.40;;;;;;20416;6873;282976;-86
2022/09/09 10:36:21;;;;;;;1.80;1.03;;;27.40;39.20;;;;;;20480;6874;119599;-85
2022/09/09 10:38:47;;;;;;;2.03;0.80;;;27.50;37.80;;;;;;20624;6874;117674;-87
2022/09/09 10:41:35;;;;;;;2.07;0.97;;;27.30;37.80;;;;;;20645;6873;68050;-87
2022/09/09 10:44:17;;;;;;;2.67;1.20;;;27.30;38.20;;;;;;20414;6874;314394;-87
2022/09/09 10:46:52;;;;;;;2.27;1.33;;;27.50;37.00;;;;;;20630;6874;118435;-85
2022/09/09 10:49:41;;;;;;;2.03;1.00;;;27.70;37.30;;;;;;20624;6873;118051;-83
2022/09/09 10:52:15;;;;;;;2.20;1.12;;;27.70;37.10;;;;;;20416;6874;279359;-86
2022/09/09 10:54:53;;;;;;;3.53;1.10;;;27.90;35.40;;;;;;20409;6872;278598;-85
2022/09/09 10:57:36;;;;;;;0.97;0.83;;;28.20;34.80;;;;;;20436;6873;315224;-85
2022/09/09 11:00:03;;;;;;;2.30;1.27;;;28.60;34.60;;;;;;20403;6873;318428;-86
2022/09/09 11:02:27;;;;;;;2.37;0.93;;;28.80;34.10;;;;;;20575;6874;117575;-86
2022/09/09 11:05:18;;;;;;;1.13;0.70;;;28.70;34.40;;;;;;20631;6874;118016;-85
2022/09/09 11:07:55;;;;;;;2.83;0.83;;;28.20;35.00;;;;;;20619;6874;118105;-87
2022/09/09 11:10:24;;;;;;;1.23;0.73;;;28.10;34.80;;;;;;20627;6874;117611;-84
2022/09/09 11:12:50;;;;;;;2.27;1.10;;;28.00;35.10;;;;;;20298;6874;279636;-85
2022/09/09 11:15:19;;;;;;;1.97;1.00;;;28.10;33.80;;;;;;20635;6874;117567;-86
2022/09/09 11:17:47;;;;;;;1.47;0.93;;;28.20;34.90;;;;;;20605;6874;118925;-87
2022/09/09 11:20:13;;;;;;;1.37;0.80;;;28.10;34.60;;;;;;20598;6873;117704;-87
2022/09/09 11:22:40;;;;;;;1.97;0.90;;;28.10;34.60;;;;;;20635;6874;117696;-86
2022/09/09 11:25:19;;;;;;;2.23;1.00;;;27.90;34.50;;;;;;20614;6873;123946;-86
2022/09/09 11:28:06;;;;;;;1.33;1.00;;;27.70;34.70;;;;;;20407;6873;280778;-88
2022/09/09 11:30:44;;;;;;;1.17;0.80;;;27.60;33.40;;;;;;20427;6873;309572;-88
2022/09/09 11:33:29;;;;;;;1.87;0.80;;;27.50;34.00;;;;;;19749;6873;311597;-88
2022/09/09 11:36:35;;;;;;;1.03;0.70;;;27.30;34.50;;;;;;20622;6873;117516;-87
2022/09/09 11:39:13;;;;;;;1.67;0.80;;;26.90;35.30;;;;;;20638;6874;117688;-86
2022/09/09 11:41:39;;;;;;;2.13;0.70;;;26.40;36.20;;;;;;19708;6874;311090;-87
2022/09/09 11:44:13;;;;;;;0.70;0.40;;;26.40;36.00;;;;;;20620;6874;125363;-87
2022/09/09 11:46:38;;;;;;;1.57;0.60;;;26.20;36.30;;;;;;20619;6874;118030;-86
2022/09/09 11:49:07;;;;;;;0.50;0.47;;;26.00;36.70;;;;;;20634;6874;118502;-87
2022/09/09 11:51:33;;;;;;;0.73;0.50;;;25.80;36.90;;;;;;20649;6873;116658;-87
2022/09/09 11:54:01;;;;;;;1.07;0.60;;;25.70;36.90;;;;;;20618;6874;118177;-87
2022/09/09 11:56:31;;;;;;;0.80;0.60;;;25.80;37.00;;;;;;20431;6874;314042;-87
2022/09/09 11:58:58;;;;;;;1.60;0.40;;;26.20;36.30;;;;;;20433;6874;279494;-88
2022/09/09 12:01:35;;;;;;;0.70;0.50;;;26.70;34.70;;;;;;20419;6874;308444;-86
2022/09/09 12:04:17;;;;;;;0.47;0.47;;;27.20;34.70;;;;;;20637;6874;116906;-87
2022/09/09 12:07:09;;;;;;;1.52;0.52;;;27.30;34.20;;;;;;20408;6873;309261;-87
2022/09/09 12:09:48;;;;;;;1.23;0.60;;;27.40;33.10;;;;;;20438;6873;286763;-88
2022/09/09 12:12:14;;;;;;;1.60;0.80;;;27.60;32.70;;;;;;20428;6873;279634;-87
2022/09/09 12:15:07;;;;;;;0.45;0.45;;;27.40;32.70;;;;;;20670;6874;70333;-86
2022/09/09 12:17:33;;;;;;;1.23;0.60;;;27.40;32.70;;;;;;20635;6874;117631;-86
2022/09/09 12:20:10;;;;;;;2.60;0.60;;;27.00;33.40;;;;;;20368;6874;338529;-87
2022/09/09 12:23:06;;;;;;;2.30;0.57;;;27.00;32.90;;;;;;20661;6878;117485;-86
2022/09/09 12:25:35;;;;;;;1.90;0.50;;;26.90;33.30;;;;;;20611;6878;117629;-85
2022/09/09 12:28:17;;;;;;;1.33;0.70;;;26.50;34.10;;;;;;20593;6878;118014;-87
2022/09/09 12:31:17;;;;;;;0.93;0.60;;;26.40;34.00;;;;;;20381;6879;311339;-84
2022/09/09 12:33:43;;;;;;;4.23;0.60;;;26.60;34.10;;;;;;20604;6881;117800;-84
2022/09/09 12:36:07;;;;;;;2.20;0.98;;;26.60;34.20;;;;;;20585;6881;117920;-84
2022/09/09 12:38:34;;;;;;;1.15;0.70;;;26.60;34.50;;;;;;20374;6881;309348;-86
2022/09/09 12:41:00;;;;;;;2.73;1.10;;;26.50;34.50;;;;;;20601;6881;119802;-85
2022/09/09 12:43:25;;;;;;;2.07;0.80;;;26.60;34.80;;;;;;20608;6881;118665;-86
2022/09/09 12:45:56;;;;;;;1.75;0.70;;;26.40;35.10;;;;;;20408;6881;282929;-84
2022/09/09 12:48:16;;;;;;;2.60;0.90;;;26.50;34.90;;;;;;20395;6881;308393;-86
2022/09/09 12:50:45;;;;;;;1.60;0.80;;;26.70;34.60;;;;;;20355;6881;339715;-84
2022/09/09 12:53:20;;;;;;;0.83;0.70;;;26.90;34.60;;;;;;20603;6881;120070;-84
2022/09/09 12:55:49;;;;;;;3.60;0.57;;;26.80;34.70;;;;;;20591;6881;120973;-84
2022/09/09 12:58:14;;;;;;;3.10;1.10;;;26.50;34.90;;;;;;20578;6881;123628;-84
2022/09/09 13:00:41;;;;;;;2.23;0.67;;;26.30;35.00;;;;;;20604;6881;123568;-84